sensor_id;sensor_type;location;lat;lon;timestamp;P1;durP1;ratioP1;P2;durP2;ratioP2
49015;SDS011;34830;44.064;12.566;2024-03-08T00:01:13;21.52;;;11.75;;
49015;SDS011;34830;44.064;12.566;2024-03-08T00:03:39;23.75;;;13.23;;
49015;SDS011;34830;44.064;12.566;2024-03-08T00:06:06;22.98;;;13.60;;
49015;SDS011;34830;44.064;12.566;2024-03-08T00:08:32;23.92;;;12.68;;
49015;SDS011;34830;44.064;12.566;2024-03-08T00:10:58;19.98;;;12.70;;
49015;SDS011;34830;44.064;12.566;2024-03-08T00:13:24;21.67;;;12.40;;
49015;SDS011;34830;44.064;12.566;2024-03-08T00:15:50;22.10;;;12.20;;
49015;SDS011;34830;44.064;12.566;2024-03-08T00:18:17;22.52;;;13.35;;
49015;SDS011;34830;44.064;12.566;2024-03-08T00:20:43;25.35;;;13.07;;
49015;SDS011;34830;44.064;12.566;2024-03-08T00:23:10;24.27;;;12.00;;
49015;SDS011;34830;44.064;12.566;2024-03-08T00:25:36;20.88;;;12.38;;
49015;SDS011;34830;44.064;12.566;2024-03-08T00:28:03;24.48;;;12.73;;
49015;SDS011;34830;44.064;12.566;2024-03-08T00:30:30;22.52;;;12.63;;
49015;SDS011;34830;44.064;12.566;2024-03-08T00:32:56;22.33;;;12.95;;
49015;SDS011;34830;44.064;12.566;2024-03-08T00:35:22;24.60;;;13.95;;
49015;SDS011;34830;44.064;12.566;2024-03-08T00:37:49;24.67;;;13.15;;
49015;SDS011;34830;44.064;12.566;2024-03-08T00:40:15;25.33;;;13.45;;
49015;SDS011;34830;44.064;12.566;2024-03-08T00:42:41;19.55;;;11.70;;
49015;SDS011;34830;44.064;12.566;2024-03-08T00:45:09;21.45;;;11.88;;
49015;SDS011;34830;44.064;12.566;2024-03-08T00:47:36;22.65;;;12.70;;
49015;SDS011;34830;44.064;12.566;2024-03-08T00:50:02;22.13;;;12.48;;
49015;SDS011;34830;44.064;12.566;2024-03-08T00:52:31;21.90;;;12.00;;
49015;SDS011;34830;44.064;12.566;2024-03-08T00:54:57;24.77;;;13.65;;
49015;SDS011;34830;44.064;12.566;2024-03-08T00:57:23;22.90;;;12.57;;
49015;SDS011;34830;44.064;12.566;2024-03-08T00:59:49;21.45;;;12.85;;
49015;SDS011;34830;44.064;12.566;2024-03-08T01:02:30;22.20;;;12.80;;
49015;SDS011;34830;44.064;12.566;2024-03-08T01:07:44;22.67;;;11.48;;
49015;SDS011;34830;44.064;12.566;2024-03-08T01:10:19;24.10;;;12.48;;
49015;SDS011;34830;44.064;12.566;2024-03-08T01:13:06;23.05;;;11.68;;
49015;SDS011;34830;44.064;12.566;2024-03-08T01:15:32;19.58;;;11.68;;
49015;SDS011;34830;44.064;12.566;2024-03-08T01:17:58;25.55;;;13.15;;
49015;SDS011;34830;44.064;12.566;2024-03-08T01:20:24;25.35;;;11.82;;
49015;SDS011;34830;44.064;12.566;2024-03-08T01:22:50;20.55;;;12.15;;
49015;SDS011;34830;44.064;12.566;2024-03-08T01:28:01;17.98;;;11.10;;
49015;SDS011;34830;44.064;12.566;2024-03-08T01:30:34;22.45;;;12.63;;
49015;SDS011;34830;44.064;12.566;2024-03-08T01:33:02;24.85;;;13.05;;
49015;SDS011;34830;44.064;12.566;2024-03-08T01:35:28;19.30;;;11.25;;
49015;SDS011;34830;44.064;12.566;2024-03-08T01:37:55;18.40;;;11.15;;
49015;SDS011;34830;44.064;12.566;2024-03-08T01:40:21;20.13;;;12.05;;
49015;SDS011;34830;44.064;12.566;2024-03-08T01:42:48;17.95;;;11.10;;
49015;SDS011;34830;44.064;12.566;2024-03-08T01:45:14;18.30;;;10.93;;
49015;SDS011;34830;44.064;12.566;2024-03-08T01:47:40;20.75;;;12.65;;
49015;SDS011;34830;44.064;12.566;2024-03-08T01:50:06;21.35;;;11.48;;
49015;SDS011;34830;44.064;12.566;2024-03-08T01:52:33;20.90;;;11.23;;
49015;SDS011;34830;44.064;12.566;2024-03-08T01:55:00;24.35;;;13.43;;
49015;SDS011;34830;44.064;12.566;2024-03-08T01:57:28;25.85;;;12.70;;
49015;SDS011;34830;44.064;12.566;2024-03-08T01:59:54;22.95;;;13.30;;
49015;SDS011;34830;44.064;12.566;2024-03-08T02:02:21;24.58;;;13.18;;
49015;SDS011;34830;44.064;12.566;2024-03-08T02:04:48;22.23;;;12.75;;
49015;SDS011;34830;44.064;12.566;2024-03-08T02:07:14;21.80;;;12.27;;
49015;SDS011;34830;44.064;12.566;2024-03-08T02:09:40;22.80;;;12.93;;
49015;SDS011;34830;44.064;12.566;2024-03-08T02:12:06;22.65;;;12.27;;
49015;SDS011;34830;44.064;12.566;2024-03-08T02:14:37;21.77;;;13.35;;
49015;SDS011;34830;44.064;12.566;2024-03-08T02:17:03;21.50;;;11.63;;
49015;SDS011;34830;44.064;12.566;2024-03-08T02:19:30;20.30;;;11.85;;
49015;SDS011;34830;44.064;12.566;2024-03-08T02:21:56;27.63;;;11.95;;
49015;SDS011;34830;44.064;12.566;2024-03-08T02:24:23;25.95;;;11.85;;
49015;SDS011;34830;44.064;12.566;2024-03-08T02:26:49;23.10;;;12.23;;
49015;SDS011;34830;44.064;12.566;2024-03-08T02:29:15;20.23;;;11.88;;
49015;SDS011;34830;44.064;12.566;2024-03-08T02:31:42;23.77;;;12.15;;
49015;SDS011;34830;44.064;12.566;2024-03-08T02:34:08;23.95;;;12.65;;
49015;SDS011;34830;44.064;12.566;2024-03-08T02:36:35;24.88;;;12.00;;
49015;SDS011;34830;44.064;12.566;2024-03-08T02:39:02;19.67;;;11.45;;
49015;SDS011;34830;44.064;12.566;2024-03-08T02:41:33;23.25;;;12.45;;
49015;SDS011;34830;44.064;12.566;2024-03-08T02:43:59;21.40;;;11.27;;
49015;SDS011;34830;44.064;12.566;2024-03-08T02:46:25;19.48;;;11.35;;
49015;SDS011;34830;44.064;12.566;2024-03-08T02:48:51;21.80;;;12.05;;
49015;SDS011;34830;44.064;12.566;2024-03-08T02:51:17;25.83;;;12.02;;
49015;SDS011;34830;44.064;12.566;2024-03-08T02:53:43;20.25;;;11.45;;
49015;SDS011;34830;44.064;12.566;2024-03-08T02:56:09;21.73;;;12.23;;
49015;SDS011;34830;44.064;12.566;2024-03-08T02:58:38;20.58;;;11.52;;
49015;SDS011;34830;44.064;12.566;2024-03-08T03:01:04;19.10;;;11.70;;
49015;SDS011;34830;44.064;12.566;2024-03-08T03:03:30;17.67;;;10.82;;
49015;SDS011;34830;44.064;12.566;2024-03-08T03:05:56;16.52;;;10.63;;
49015;SDS011;34830;44.064;12.566;2024-03-08T03:08:24;19.17;;;10.93;;
49015;SDS011;34830;44.064;12.566;2024-03-08T03:10:50;17.65;;;11.05;;
49015;SDS011;34830;44.064;12.566;2024-03-08T03:13:16;19.40;;;11.95;;
49015;SDS011;34830;44.064;12.566;2024-03-08T03:15:42;20.42;;;10.75;;
49015;SDS011;34830;44.064;12.566;2024-03-08T03:18:08;24.17;;;12.00;;
49015;SDS011;34830;44.064;12.566;2024-03-08T03:20:34;21.60;;;12.02;;
49015;SDS011;34830;44.064;12.566;2024-03-08T03:23:06;23.27;;;11.73;;
49015;SDS011;34830;44.064;12.566;2024-03-08T03:25:34;18.42;;;10.73;;
49015;SDS011;34830;44.064;12.566;2024-03-08T03:28:01;19.27;;;9.98;;
49015;SDS011;34830;44.064;12.566;2024-03-08T03:30:28;17.90;;;10.18;;
49015;SDS011;34830;44.064;12.566;2024-03-08T03:32:59;20.83;;;9.70;;
49015;SDS011;34830;44.064;12.566;2024-03-08T03:35:26;17.80;;;9.52;;
49015;SDS011;34830;44.064;12.566;2024-03-08T03:37:53;19.75;;;11.13;;
49015;SDS011;34830;44.064;12.566;2024-03-08T03:40:32;18.27;;;10.25;;
49015;SDS011;34830;44.064;12.566;2024-03-08T03:42:59;15.55;;;9.57;;
49015;SDS011;34830;44.064;12.566;2024-03-08T03:45:25;19.05;;;10.55;;
49015;SDS011;34830;44.064;12.566;2024-03-08T03:47:52;18.52;;;10.85;;
49015;SDS011;34830;44.064;12.566;2024-03-08T03:50:18;19.30;;;10.45;;
49015;SDS011;34830;44.064;12.566;2024-03-08T03:52:47;19.33;;;10.70;;
49015;SDS011;34830;44.064;12.566;2024-03-08T03:55:14;18.13;;;9.85;;
49015;SDS011;34830;44.064;12.566;2024-03-08T03:57:40;18.02;;;9.75;;
49015;SDS011;34830;44.064;12.566;2024-03-08T04:00:07;18.38;;;10.75;;
49015;SDS011;34830;44.064;12.566;2024-03-08T04:02:40;19.08;;;10.40;;
49015;SDS011;34830;44.064;12.566;2024-03-08T04:05:09;16.80;;;9.98;;
49015;SDS011;34830;44.064;12.566;2024-03-08T04:07:36;17.40;;;9.75;;
49015;SDS011;34830;44.064;12.566;2024-03-08T04:10:03;13.13;;;8.40;;
49015;SDS011;34830;44.064;12.566;2024-03-08T04:12:32;13.10;;;7.93;;
49015;SDS011;34830;44.064;12.566;2024-03-08T04:14:59;15.27;;;8.57;;
49015;SDS011;34830;44.064;12.566;2024-03-08T04:17:25;17.50;;;8.52;;
49015;SDS011;34830;44.064;12.566;2024-03-08T04:19:51;13.95;;;7.38;;
49015;SDS011;34830;44.064;12.566;2024-03-08T04:22:18;15.45;;;8.38;;
49015;SDS011;34830;44.064;12.566;2024-03-08T04:24:44;16.95;;;9.40;;
49015;SDS011;34830;44.064;12.566;2024-03-08T04:27:11;15.43;;;9.23;;
49015;SDS011;34830;44.064;12.566;2024-03-08T04:29:37;13.70;;;7.72;;
49015;SDS011;34830;44.064;12.566;2024-03-08T04:32:04;17.38;;;9.13;;
49015;SDS011;34830;44.064;12.566;2024-03-08T04:34:32;14.43;;;8.20;;
49015;SDS011;34830;44.064;12.566;2024-03-08T04:37:00;16.15;;;8.20;;
49015;SDS011;34830;44.064;12.566;2024-03-08T04:39:27;17.70;;;9.85;;
49015;SDS011;34830;44.064;12.566;2024-03-08T04:41:57;18.00;;;9.65;;
49015;SDS011;34830;44.064;12.566;2024-03-08T04:44:25;15.82;;;9.05;;
49015;SDS011;34830;44.064;12.566;2024-03-08T04:46:52;17.15;;;8.85;;
49015;SDS011;34830;44.064;12.566;2024-03-08T04:49:18;17.02;;;8.23;;
49015;SDS011;34830;44.064;12.566;2024-03-08T04:51:44;14.27;;;7.90;;
49015;SDS011;34830;44.064;12.566;2024-03-08T04:54:10;21.90;;;8.48;;
49015;SDS011;34830;44.064;12.566;2024-03-08T04:56:36;15.32;;;8.15;;
49015;SDS011;34830;44.064;12.566;2024-03-08T04:59:02;12.63;;;7.35;;
49015;SDS011;34830;44.064;12.566;2024-03-08T05:01:28;13.68;;;7.60;;
49015;SDS011;34830;44.064;12.566;2024-03-08T05:03:54;14.52;;;8.30;;
49015;SDS011;34830;44.064;12.566;2024-03-08T05:06:21;17.60;;;8.60;;
49015;SDS011;34830;44.064;12.566;2024-03-08T05:08:47;19.58;;;8.73;;
49015;SDS011;34830;44.064;12.566;2024-03-08T05:11:13;16.27;;;8.30;;
49015;SDS011;34830;44.064;12.566;2024-03-08T05:13:40;20.40;;;10.63;;
49015;SDS011;34830;44.064;12.566;2024-03-08T05:16:06;17.67;;;9.93;;
49015;SDS011;34830;44.064;12.566;2024-03-08T05:18:33;27.40;;;13.95;;
49015;SDS011;34830;44.064;12.566;2024-03-08T05:20:59;18.92;;;9.55;;
49015;SDS011;34830;44.064;12.566;2024-03-08T05:23:26;19.48;;;9.70;;
49015;SDS011;34830;44.064;12.566;2024-03-08T05:25:52;15.20;;;8.82;;
49015;SDS011;34830;44.064;12.566;2024-03-08T05:28:18;18.75;;;9.40;;
49015;SDS011;34830;44.064;12.566;2024-03-08T05:30:45;24.33;;;11.18;;
49015;SDS011;34830;44.064;12.566;2024-03-08T05:33:11;20.38;;;9.45;;
49015;SDS011;34830;44.064;12.566;2024-03-08T05:35:40;20.15;;;8.90;;
49015;SDS011;34830;44.064;12.566;2024-03-08T05:38:06;15.77;;;9.10;;
49015;SDS011;34830;44.064;12.566;2024-03-08T05:40:32;13.73;;;8.07;;
49015;SDS011;34830;44.064;12.566;2024-03-08T05:42:59;18.13;;;8.60;;
49015;SDS011;34830;44.064;12.566;2024-03-08T05:45:25;15.60;;;8.55;;
49015;SDS011;34830;44.064;12.566;2024-03-08T05:47:54;18.23;;;8.90;;
49015;SDS011;34830;44.064;12.566;2024-03-08T05:50:20;17.90;;;9.35;;
49015;SDS011;34830;44.064;12.566;2024-03-08T05:52:46;17.42;;;9.05;;
49015;SDS011;34830;44.064;12.566;2024-03-08T05:55:15;16.67;;;9.48;;
49015;SDS011;34830;44.064;12.566;2024-03-08T05:57:42;20.45;;;9.45;;
49015;SDS011;34830;44.064;12.566;2024-03-08T06:00:08;22.00;;;9.15;;
49015;SDS011;34830;44.064;12.566;2024-03-08T06:02:41;22.75;;;9.55;;
49015;SDS011;34830;44.064;12.566;2024-03-08T06:05:08;19.63;;;10.18;;
49015;SDS011;34830;44.064;12.566;2024-03-08T06:07:36;22.38;;;11.18;;
49015;SDS011;34830;44.064;12.566;2024-03-08T06:10:02;22.50;;;10.05;;
49015;SDS011;34830;44.064;12.566;2024-03-08T06:12:29;16.40;;;8.48;;
49015;SDS011;34830;44.064;12.566;2024-03-08T06:14:58;18.63;;;8.68;;
49015;SDS011;34830;44.064;12.566;2024-03-08T06:17:24;17.48;;;10.30;;
49015;SDS011;34830;44.064;12.566;2024-03-08T06:19:51;15.38;;;9.13;;
49015;SDS011;34830;44.064;12.566;2024-03-08T06:22:18;20.38;;;10.45;;
49015;SDS011;34830;44.064;12.566;2024-03-08T06:24:45;21.67;;;9.63;;
49015;SDS011;34830;44.064;12.566;2024-03-08T06:27:12;21.58;;;9.02;;
49015;SDS011;34830;44.064;12.566;2024-03-08T06:29:38;19.85;;;8.88;;
49015;SDS011;34830;44.064;12.566;2024-03-08T06:32:05;16.83;;;9.07;;
49015;SDS011;34830;44.064;12.566;2024-03-08T06:34:34;15.43;;;9.07;;
49015;SDS011;34830;44.064;12.566;2024-03-08T06:37:00;24.95;;;12.07;;
49015;SDS011;34830;44.064;12.566;2024-03-08T06:39:27;23.73;;;11.15;;
49015;SDS011;34830;44.064;12.566;2024-03-08T06:41:57;29.75;;;11.73;;
49015;SDS011;34830;44.064;12.566;2024-03-08T06:44:23;16.45;;;10.25;;
49015;SDS011;34830;44.064;12.566;2024-03-08T06:46:49;19.73;;;11.60;;
49015;SDS011;34830;44.064;12.566;2024-03-08T06:49:15;22.92;;;10.85;;
49015;SDS011;34830;44.064;12.566;2024-03-08T06:51:41;23.80;;;10.82;;
49015;SDS011;34830;44.064;12.566;2024-03-08T06:54:07;30.38;;;11.48;;
49015;SDS011;34830;44.064;12.566;2024-03-08T06:56:34;24.23;;;10.15;;
49015;SDS011;34830;44.064;12.566;2024-03-08T06:59:00;20.70;;;9.95;;
49015;SDS011;34830;44.064;12.566;2024-03-08T07:01:29;25.45;;;11.25;;
49015;SDS011;34830;44.064;12.566;2024-03-08T07:03:59;34.10;;;12.02;;
49015;SDS011;34830;44.064;12.566;2024-03-08T07:06:27;23.25;;;10.80;;
49015;SDS011;34830;44.064;12.566;2024-03-08T07:08:54;16.65;;;9.40;;
49015;SDS011;34830;44.064;12.566;2024-03-08T07:11:20;20.27;;;10.35;;
49015;SDS011;34830;44.064;12.566;2024-03-08T07:13:47;23.88;;;9.45;;
49015;SDS011;34830;44.064;12.566;2024-03-08T07:16:13;19.48;;;10.23;;
49015;SDS011;34830;44.064;12.566;2024-03-08T07:18:39;22.65;;;10.52;;
49015;SDS011;34830;44.064;12.566;2024-03-08T07:21:09;18.52;;;10.07;;
49015;SDS011;34830;44.064;12.566;2024-03-08T07:23:36;22.27;;;9.75;;
49015;SDS011;34830;44.064;12.566;2024-03-08T07:26:34;22.33;;;9.75;;
49015;SDS011;34830;44.064;12.566;2024-03-08T07:29:04;18.83;;;9.73;;
49015;SDS011;34830;44.064;12.566;2024-03-08T07:31:30;30.67;;;10.88;;
49015;SDS011;34830;44.064;12.566;2024-03-08T07:34:08;17.23;;;9.90;;
49015;SDS011;34830;44.064;12.566;2024-03-08T07:36:34;23.15;;;10.05;;
49015;SDS011;34830;44.064;12.566;2024-03-08T07:39:03;21.38;;;10.43;;
49015;SDS011;34830;44.064;12.566;2024-03-08T07:41:31;18.38;;;8.98;;
49015;SDS011;34830;44.064;12.566;2024-03-08T07:43:59;21.65;;;9.80;;
49015;SDS011;34830;44.064;12.566;2024-03-08T07:46:29;14.18;;;8.10;;
49015;SDS011;34830;44.064;12.566;2024-03-08T07:48:55;17.17;;;8.95;;
49015;SDS011;34830;44.064;12.566;2024-03-08T07:51:21;17.60;;;8.93;;
49015;SDS011;34830;44.064;12.566;2024-03-08T07:53:47;22.92;;;8.88;;
49015;SDS011;34830;44.064;12.566;2024-03-08T07:56:13;12.30;;;7.57;;
49015;SDS011;34830;44.064;12.566;2024-03-08T07:58:42;16.35;;;7.68;;
49015;SDS011;34830;44.064;12.566;2024-03-08T08:01:15;23.55;;;9.75;;
49015;SDS011;34830;44.064;12.566;2024-03-08T08:03:42;14.13;;;6.85;;
49015;SDS011;34830;44.064;12.566;2024-03-08T08:06:08;10.10;;;7.07;;
49015;SDS011;34830;44.064;12.566;2024-03-08T08:08:35;12.95;;;6.65;;
49015;SDS011;34830;44.064;12.566;2024-03-08T08:11:02;22.60;;;8.52;;
49015;SDS011;34830;44.064;12.566;2024-03-08T08:13:28;14.43;;;8.00;;
49015;SDS011;34830;44.064;12.566;2024-03-08T08:15:58;27.38;;;10.40;;
49015;SDS011;34830;44.064;12.566;2024-03-08T08:18:24;16.17;;;7.90;;
49015;SDS011;34830;44.064;12.566;2024-03-08T08:20:51;13.68;;;8.20;;
49015;SDS011;34830;44.064;12.566;2024-03-08T08:23:20;19.60;;;9.07;;
49015;SDS011;34830;44.064;12.566;2024-03-08T08:25:47;13.27;;;7.80;;
49015;SDS011;34830;44.064;12.566;2024-03-08T08:28:16;16.85;;;7.55;;
49015;SDS011;34830;44.064;12.566;2024-03-08T08:30:46;13.00;;;7.95;;
49015;SDS011;34830;44.064;12.566;2024-03-08T08:33:12;15.75;;;8.63;;
49015;SDS011;34830;44.064;12.566;2024-03-08T08:35:38;15.23;;;9.13;;
49015;SDS011;34830;44.064;12.566;2024-03-08T08:38:05;21.30;;;7.70;;
49015;SDS011;34830;44.064;12.566;2024-03-08T08:40:31;21.60;;;9.82;;
49015;SDS011;34830;44.064;12.566;2024-03-08T08:42:57;15.00;;;8.75;;
49015;SDS011;34830;44.064;12.566;2024-03-08T08:45:24;14.35;;;8.25;;
49015;SDS011;34830;44.064;12.566;2024-03-08T08:47:50;14.45;;;8.00;;
49015;SDS011;34830;44.064;12.566;2024-03-08T08:50:16;20.45;;;8.88;;
49015;SDS011;34830;44.064;12.566;2024-03-08T08:52:48;16.58;;;8.00;;
49015;SDS011;34830;44.064;12.566;2024-03-08T08:55:15;14.77;;;7.97;;
49015;SDS011;34830;44.064;12.566;2024-03-08T08:57:41;13.77;;;7.72;;
49015;SDS011;34830;44.064;12.566;2024-03-08T09:00:07;20.63;;;8.88;;
49015;SDS011;34830;44.064;12.566;2024-03-08T09:02:36;17.35;;;7.90;;
49015;SDS011;34830;44.064;12.566;2024-03-08T09:05:03;17.35;;;8.55;;
49015;SDS011;34830;44.064;12.566;2024-03-08T09:07:29;15.68;;;7.85;;
49015;SDS011;34830;44.064;12.566;2024-03-08T09:09:55;13.40;;;7.72;;
49015;SDS011;34830;44.064;12.566;2024-03-08T09:12:24;14.77;;;8.15;;
49015;SDS011;34830;44.064;12.566;2024-03-08T09:14:50;15.07;;;7.97;;
49015;SDS011;34830;44.064;12.566;2024-03-08T09:17:16;17.48;;;7.57;;
49015;SDS011;34830;44.064;12.566;2024-03-08T09:19:46;13.88;;;7.63;;
49015;SDS011;34830;44.064;12.566;2024-03-08T09:22:13;15.82;;;7.70;;
49015;SDS011;34830;44.064;12.566;2024-03-08T09:24:39;15.25;;;6.93;;
49015;SDS011;34830;44.064;12.566;2024-03-08T09:27:06;17.02;;;8.73;;
49015;SDS011;34830;44.064;12.566;2024-03-08T09:29:32;13.27;;;7.05;;
49015;SDS011;34830;44.064;12.566;2024-03-08T09:31:58;13.05;;;6.22;;
49015;SDS011;34830;44.064;12.566;2024-03-08T09:34:24;14.05;;;7.90;;
49015;SDS011;34830;44.064;12.566;2024-03-08T09:36:50;21.50;;;7.15;;
49015;SDS011;34830;44.064;12.566;2024-03-08T09:39:18;12.75;;;6.82;;
49015;SDS011;34830;44.064;12.566;2024-03-08T09:41:46;19.92;;;8.23;;
49015;SDS011;34830;44.064;12.566;2024-03-08T09:44:15;13.70;;;6.53;;
49015;SDS011;34830;44.064;12.566;2024-03-08T09:46:42;12.63;;;7.03;;
49015;SDS011;34830;44.064;12.566;2024-03-08T09:49:08;9.48;;;6.15;;
49015;SDS011;34830;44.064;12.566;2024-03-08T09:51:37;11.93;;;6.68;;
49015;SDS011;34830;44.064;12.566;2024-03-08T09:54:05;9.65;;;6.32;;
49015;SDS011;34830;44.064;12.566;2024-03-08T09:56:32;10.38;;;5.28;;
49015;SDS011;34830;44.064;12.566;2024-03-08T09:58:59;7.93;;;4.88;;
49015;SDS011;34830;44.064;12.566;2024-03-08T10:01:31;7.93;;;4.78;;
49015;SDS011;34830;44.064;12.566;2024-03-08T10:03:58;9.20;;;4.75;;
49015;SDS011;34830;44.064;12.566;2024-03-08T10:06:24;13.32;;;5.78;;
49015;SDS011;34830;44.064;12.566;2024-03-08T10:08:50;7.07;;;4.53;;
49015;SDS011;34830;44.064;12.566;2024-03-08T10:11:19;11.93;;;5.25;;
49015;SDS011;34830;44.064;12.566;2024-03-08T10:13:47;10.40;;;6.18;;
49015;SDS011;34830;44.064;12.566;2024-03-08T10:16:13;10.90;;;5.85;;
49015;SDS011;34830;44.064;12.566;2024-03-08T10:18:40;12.13;;;5.50;;
49015;SDS011;34830;44.064;12.566;2024-03-08T10:21:07;8.10;;;4.63;;
49015;SDS011;34830;44.064;12.566;2024-03-08T10:23:36;11.85;;;6.18;;
49015;SDS011;34830;44.064;12.566;2024-03-08T10:26:12;9.23;;;4.55;;
49015;SDS011;34830;44.064;12.566;2024-03-08T10:28:42;7.30;;;4.80;;
49015;SDS011;34830;44.064;12.566;2024-03-08T10:31:10;10.05;;;5.05;;
49015;SDS011;34830;44.064;12.566;2024-03-08T10:33:36;20.02;;;6.30;;
49015;SDS011;34830;44.064;12.566;2024-03-08T10:36:06;11.23;;;6.55;;
49015;SDS011;34830;44.064;12.566;2024-03-08T10:38:34;9.23;;;5.40;;
49015;SDS011;34830;44.064;12.566;2024-03-08T10:41:01;13.77;;;5.30;;
49015;SDS011;34830;44.064;12.566;2024-03-08T10:43:31;10.10;;;5.18;;
49015;SDS011;34830;44.064;12.566;2024-03-08T10:46:06;9.90;;;6.30;;
49015;SDS011;34830;44.064;12.566;2024-03-08T10:48:44;7.65;;;4.88;;
49015;SDS011;34830;44.064;12.566;2024-03-08T10:51:14;11.82;;;6.72;;
49015;SDS011;34830;44.064;12.566;2024-03-08T10:53:41;11.23;;;6.10;;
49015;SDS011;34830;44.064;12.566;2024-03-08T10:56:09;11.18;;;5.38;;
49015;SDS011;34830;44.064;12.566;2024-03-08T10:58:35;13.43;;;5.55;;
49015;SDS011;34830;44.064;12.566;2024-03-08T11:01:02;9.50;;;5.53;;
49015;SDS011;34830;44.064;12.566;2024-03-08T11:06:07;9.80;;;5.70;;
49015;SDS011;34830;44.064;12.566;2024-03-08T11:08:38;16.80;;;8.10;;
49015;SDS011;34830;44.064;12.566;2024-03-08T11:11:04;15.20;;;6.47;;
49015;SDS011;34830;44.064;12.566;2024-03-08T11:16:07;20.90;;;6.70;;
49015;SDS011;34830;44.064;12.566;2024-03-08T11:18:35;14.55;;;6.20;;
49015;SDS011;34830;44.064;12.566;2024-03-08T11:21:04;11.05;;;7.13;;
49015;SDS011;34830;44.064;12.566;2024-03-08T11:23:32;14.27;;;5.60;;
49015;SDS011;34830;44.064;12.566;2024-03-08T11:25:59;16.05;;;7.05;;
49015;SDS011;34830;44.064;12.566;2024-03-08T11:28:25;19.60;;;6.28;;
49015;SDS011;34830;44.064;12.566;2024-03-08T11:33:28;17.98;;;6.63;;
49015;SDS011;34830;44.064;12.566;2024-03-08T11:36:09;14.07;;;6.67;;
49015;SDS011;34830;44.064;12.566;2024-03-08T11:41:06;16.02;;;7.15;;
49015;SDS011;34830;44.064;12.566;2024-03-08T11:43:32;16.48;;;7.10;;
49015;SDS011;34830;44.064;12.566;2024-03-08T11:46:08;14.30;;;7.03;;
49015;SDS011;34830;44.064;12.566;2024-03-08T11:48:34;13.18;;;6.72;;
49015;SDS011;34830;44.064;12.566;2024-03-08T11:51:01;20.13;;;6.85;;
49015;SDS011;34830;44.064;12.566;2024-03-08T11:53:28;15.23;;;7.20;;
49015;SDS011;34830;44.064;12.566;2024-03-08T11:55:55;13.23;;;7.30;;
49015;SDS011;34830;44.064;12.566;2024-03-08T11:58:21;15.52;;;7.38;;
49015;SDS011;34830;44.064;12.566;2024-03-08T12:00:47;13.18;;;7.03;;
49015;SDS011;34830;44.064;12.566;2024-03-08T12:03:14;16.33;;;6.28;;
49015;SDS011;34830;44.064;12.566;2024-03-08T12:05:41;9.43;;;5.90;;
49015;SDS011;34830;44.064;12.566;2024-03-08T12:08:08;14.02;;;6.38;;
49015;SDS011;34830;44.064;12.566;2024-03-08T12:10:38;19.85;;;6.90;;
49015;SDS011;34830;44.064;12.566;2024-03-08T12:13:04;12.48;;;7.03;;
49015;SDS011;34830;44.064;12.566;2024-03-08T12:15:37;14.32;;;7.00;;
49015;SDS011;34830;44.064;12.566;2024-03-08T12:18:03;14.00;;;6.45;;
49015;SDS011;34830;44.064;12.566;2024-03-08T12:20:30;13.70;;;6.65;;
49015;SDS011;34830;44.064;12.566;2024-03-08T12:22:57;15.23;;;6.20;;
49015;SDS011;34830;44.064;12.566;2024-03-08T12:25:33;15.02;;;5.78;;
49015;SDS011;34830;44.064;12.566;2024-03-08T12:28:08;13.75;;;6.78;;
49015;SDS011;34830;44.064;12.566;2024-03-08T12:30:50;21.23;;;6.95;;
49015;SDS011;34830;44.064;12.566;2024-03-08T12:33:19;17.95;;;7.22;;
49015;SDS011;34830;44.064;12.566;2024-03-08T12:35:52;13.30;;;5.88;;
49015;SDS011;34830;44.064;12.566;2024-03-08T12:38:20;17.70;;;6.22;;
49015;SDS011;34830;44.064;12.566;2024-03-08T12:40:50;11.52;;;5.97;;
49015;SDS011;34830;44.064;12.566;2024-03-08T12:43:16;10.48;;;5.68;;
49015;SDS011;34830;44.064;12.566;2024-03-08T12:45:44;16.60;;;6.25;;
49015;SDS011;34830;44.064;12.566;2024-03-08T12:48:13;11.50;;;6.00;;
49015;SDS011;34830;44.064;12.566;2024-03-08T12:50:43;13.68;;;5.25;;
49015;SDS011;34830;44.064;12.566;2024-03-08T12:53:13;11.40;;;5.72;;
49015;SDS011;34830;44.064;12.566;2024-03-08T12:55:40;13.60;;;6.20;;
49015;SDS011;34830;44.064;12.566;2024-03-08T12:58:06;16.50;;;5.82;;
49015;SDS011;34830;44.064;12.566;2024-03-08T13:00:36;15.18;;;5.50;;
49015;SDS011;34830;44.064;12.566;2024-03-08T13:03:02;14.45;;;6.18;;
49015;SDS011;34830;44.064;12.566;2024-03-08T13:05:28;15.88;;;5.55;;
49015;SDS011;34830;44.064;12.566;2024-03-08T13:07:55;15.80;;;6.05;;
49015;SDS011;34830;44.064;12.566;2024-03-08T13:10:22;20.52;;;5.63;;
49015;SDS011;34830;44.064;12.566;2024-03-08T13:12:48;19.45;;;6.20;;
49015;SDS011;34830;44.064;12.566;2024-03-08T13:15:15;15.88;;;5.43;;
49015;SDS011;34830;44.064;12.566;2024-03-08T13:17:48;14.75;;;5.82;;
49015;SDS011;34830;44.064;12.566;2024-03-08T13:20:15;12.85;;;6.15;;
49015;SDS011;34830;44.064;12.566;2024-03-08T13:22:48;12.68;;;5.38;;
49015;SDS011;34830;44.064;12.566;2024-03-08T13:25:14;9.75;;;4.88;;
49015;SDS011;34830;44.064;12.566;2024-03-08T13:27:40;15.40;;;5.07;;
49015;SDS011;34830;44.064;12.566;2024-03-08T13:30:08;12.82;;;4.85;;
49015;SDS011;34830;44.064;12.566;2024-03-08T13:32:39;12.45;;;5.00;;
49015;SDS011;34830;44.064;12.566;2024-03-08T13:35:09;11.68;;;5.20;;
49015;SDS011;34830;44.064;12.566;2024-03-08T13:37:39;11.43;;;5.93;;
49015;SDS011;34830;44.064;12.566;2024-03-08T13:40:08;22.63;;;6.88;;
49015;SDS011;34830;44.064;12.566;2024-03-08T13:42:40;15.02;;;5.45;;
49015;SDS011;34830;44.064;12.566;2024-03-08T13:45:10;14.80;;;5.50;;
49015;SDS011;34830;44.064;12.566;2024-03-08T13:47:40;8.82;;;5.25;;
49015;SDS011;34830;44.064;12.566;2024-03-08T13:50:07;10.63;;;5.57;;
49015;SDS011;34830;44.064;12.566;2024-03-08T13:52:37;14.77;;;5.87;;
49015;SDS011;34830;44.064;12.566;2024-03-08T13:55:04;12.05;;;5.78;;
49015;SDS011;34830;44.064;12.566;2024-03-08T13:57:31;23.90;;;6.47;;
49015;SDS011;34830;44.064;12.566;2024-03-08T13:59:58;20.75;;;6.95;;
49015;SDS011;34830;44.064;12.566;2024-03-08T14:02:25;10.45;;;5.80;;
49015;SDS011;34830;44.064;12.566;2024-03-08T14:04:54;14.98;;;5.38;;
49015;SDS011;34830;44.064;12.566;2024-03-08T14:07:23;11.02;;;4.93;;
49015;SDS011;34830;44.064;12.566;2024-03-08T14:09:49;12.65;;;5.35;;
49015;SDS011;34830;44.064;12.566;2024-03-08T14:12:18;12.50;;;4.85;;
49015;SDS011;34830;44.064;12.566;2024-03-08T14:14:45;25.27;;;5.40;;
49015;SDS011;34830;44.064;12.566;2024-03-08T14:17:11;14.63;;;5.43;;
49015;SDS011;34830;44.064;12.566;2024-03-08T14:19:42;12.02;;;5.45;;
49015;SDS011;34830;44.064;12.566;2024-03-08T14:22:08;13.20;;;5.30;;
49015;SDS011;34830;44.064;12.566;2024-03-08T14:24:40;15.75;;;5.93;;
49015;SDS011;34830;44.064;12.566;2024-03-08T14:27:08;13.18;;;5.22;;
49015;SDS011;34830;44.064;12.566;2024-03-08T14:29:35;17.88;;;4.63;;
49015;SDS011;34830;44.064;12.566;2024-03-08T14:32:01;16.17;;;5.03;;
49015;SDS011;34830;44.064;12.566;2024-03-08T14:34:31;14.45;;;5.45;;
49015;SDS011;34830;44.064;12.566;2024-03-08T14:36:59;11.15;;;5.43;;